createdAt,value
2016-10-05T00:00:41.437Z,81.86
2016-10-05T00:01:23.974Z,81.86
2016-10-05T00:02:06.558Z,82.2
2016-10-05T00:02:49.101Z,82.87
2016-10-05T00:03:31.520Z,82.4
2016-10-05T00:04:14.352Z,82.01
2016-10-05T00:04:56.893Z,82.49
2016-10-05T00:05:39.458Z,82.1
2016-10-05T00:06:22.051Z,81.72
2016-10-05T00:07:04.613Z,82.01
2016-10-05T00:07:47.164Z,82.2
2016-10-05T00:08:29.726Z,82.3
2016-10-05T00:09:12.262Z,82.49
2016-10-05T00:09:54.826Z,82.3
2016-10-05T00:10:37.370Z,82.4
2016-10-05T00:11:19.895Z,82.78
2016-10-05T00:12:02.670Z,82.49
2016-10-05T00:12:45.201Z,82.4
2016-10-05T00:13:27.767Z,82.78
2016-10-05T00:14:10.375Z,82.68
2016-10-05T00:14:52.997Z,82.78
2016-10-05T00:15:35.746Z,82.68
2016-10-05T00:16:18.302Z,82.78
2016-10-05T00:17:01.010Z,82.68
2016-10-05T00:17:43.680Z,82.3
2016-10-05T00:18:26.253Z,82.49
2016-10-05T00:19:08.840Z,82.68
2016-10-05T00:19:51.450Z,82.1
2016-10-05T00:20:34.108Z,82.1
2016-10-05T00:21:16.753Z,82.2
2016-10-05T00:21:59.182Z,82.2
2016-10-05T00:22:41.859Z,81.63
2016-10-05T00:23:24.404Z,82.01
2016-10-05T00:24:06.947Z,81.72
2016-10-05T00:24:49.508Z,82.01
2016-10-05T00:25:32.094Z,81.92
2016-10-05T00:26:14.686Z,82.1
2016-10-05T00:26:57.259Z,81.82
2016-10-05T00:27:39.768Z,81.82
2016-10-05T00:28:23.243Z,82.01
2016-10-05T00:29:05.868Z,82.01
2016-10-05T00:29:48.408Z,81.92
2016-10-05T00:30:30.959Z,82.01
2016-10-05T00:31:13.597Z,81.92
2016-10-05T00:31:55.986Z,82.01
2016-10-05T00:32:38.788Z,81.53
2016-10-05T00:33:21.347Z,81.63
2016-10-05T00:34:03.935Z,81.53
2016-10-05T00:34:46.484Z,81.43
2016-10-05T00:35:29.048Z,81.24
2016-10-05T00:36:11.615Z,82.01
2016-10-05T00:36:54.161Z,81.53
2016-10-05T00:37:36.683Z,81.53
2016-10-05T00:38:19.268Z,81.43
2016-10-05T00:39:02.401Z,81.82
2016-10-05T00:39:44.957Z,81.34
2016-10-05T00:40:27.509Z,81.53
2016-10-05T00:41:10.048Z,81.53
2016-10-05T00:41:52.639Z,81.34
2016-10-05T00:42:35.197Z,81.63
2016-10-05T00:43:17.765Z,81.53
2016-10-05T00:44:00.330Z,81.63
2016-10-05T00:44:42.969Z,81.43
2016-10-05T00:45:25.460Z,81.24
2016-10-05T00:46:08.103Z,82.1
2016-10-05T00:46:50.689Z,82.1
2016-10-05T00:47:33.255Z,81.15
2016-10-05T00:48:15.799Z,82.1
2016-10-05T00:48:58.857Z,81.34
2016-10-05T00:49:41.411Z,81.43
2016-10-05T00:50:23.972Z,81.24
2016-10-05T00:51:06.596Z,81.63
2016-10-05T00:51:49.176Z,81.63
2016-10-05T00:52:31.808Z,81.15
2016-10-05T00:53:14.256Z,81.15
2016-10-05T00:53:56.956Z,81.05
2016-10-05T00:54:39.536Z,81.15
2016-10-05T00:55:22.091Z,80.76
2016-10-05T00:56:04.670Z,80.76
2016-10-05T00:56:47.265Z,81.15
2016-10-05T00:57:29.878Z,80.47
2016-10-05T00:58:12.497Z,80.38
2016-10-05T00:58:55.040Z,80.38
2016-10-05T00:59:37.562Z,80.57
2016-10-05T01:00:20.078Z,80.66
2016-10-05T01:01:02.664Z,80.28
2016-10-05T01:01:45.196Z,80.38
2016-10-05T01:02:27.759Z,80.47
2016-10-05T01:03:10.282Z,81.05
2016-10-05T01:03:52.862Z,81.15
2016-10-05T01:04:35.424Z,80.96
2016-10-05T01:05:17.972Z,81.05
2016-10-05T01:06:00.565Z,81.15
2016-10-05T01:06:43.109Z,80.96
2016-10-05T01:07:25.672Z,81.15
2016-10-05T01:08:08.220Z,81.63
2016-10-05T01:08:50.843Z,81.15
2016-10-05T01:09:33.402Z,81.34
2016-10-05T01:10:15.897Z,80.86
2016-10-05T01:10:58.558Z,80.66
2016-10-05T01:11:41.167Z,80.76
2016-10-05T01:12:23.740Z,81.15
2016-10-05T01:13:06.324Z,81.24
2016-10-05T01:13:48.927Z,80.86
2016-10-05T01:14:31.496Z,81.05
2016-10-05T01:15:14.103Z,81.05
2016-10-05T01:15:56.485Z,80.86
2016-10-05T01:16:39.202Z,80.66
2016-10-05T01:17:21.578Z,80.66
2016-10-05T01:18:04.293Z,80.57
2016-10-05T01:18:46.840Z,80.66
2016-10-05T01:19:29.378Z,80.76
2016-10-05T01:20:11.868Z,80.86
2016-10-05T01:20:54.495Z,80.8
2016-10-05T01:21:36.863Z,80.32
2016-10-05T01:22:19.621Z,80.66
2016-10-05T01:23:02.174Z,80.86
2016-10-05T01:23:44.741Z,80.96
2016-10-05T01:24:27.267Z,81.34
2016-10-05T01:25:09.814Z,80.76
2016-10-05T01:25:52.357Z,81.24
2016-10-05T01:26:34.946Z,81.15
2016-10-05T01:27:17.542Z,81.82
2016-10-05T01:28:00.117Z,81.24
2016-10-05T01:28:42.695Z,81.82
2016-10-05T01:29:25.312Z,81.53
2016-10-05T01:30:07.892Z,81.34
2016-10-05T01:30:50.518Z,81.53
2016-10-05T01:31:33.043Z,81.63
2016-10-05T01:32:15.623Z,81.43
2016-10-05T01:32:58.246Z,81.63
2016-10-05T01:33:40.835Z,81.34
2016-10-05T01:34:23.385Z,81.63
2016-10-05T01:35:05.953Z,81.82
2016-10-05T01:35:48.537Z,81.43
2016-10-05T01:36:31.181Z,81.63
2016-10-05T01:37:13.711Z,81.43
2016-10-05T01:37:56.308Z,81.82
2016-10-05T01:38:38.830Z,81.24
2016-10-05T01:39:21.435Z,81.15
2016-10-05T01:40:04.030Z,80.96
2016-10-05T01:40:46.603Z,80.57
2016-10-05T01:41:29.165Z,80.86
2016-10-05T01:42:11.754Z,80.66
2016-10-05T01:42:54.319Z,80.57
2016-10-05T01:43:36.922Z,80.66
2016-10-05T01:44:19.514Z,80.66
2016-10-05T01:45:02.099Z,80.57
2016-10-05T01:45:45.535Z,80.76
2016-10-05T01:46:28.344Z,80.57
2016-10-05T01:47:10.910Z,80.66
2016-10-05T01:47:53.480Z,80.38
2016-10-05T01:48:36.028Z,80.38
2016-10-05T01:49:18.611Z,80.57
2016-10-05T01:50:01.286Z,80.66
2016-10-05T01:50:43.790Z,81.24
2016-10-05T01:51:26.376Z,81.43
2016-10-05T01:52:08.810Z,81.63
2016-10-05T01:52:51.488Z,81.53
2016-10-05T01:53:34.052Z,81.63
2016-10-05T01:54:16.398Z,82.1
2016-10-05T01:54:59.288Z,82.1
2016-10-05T01:55:41.864Z,82.3
2016-10-05T01:56:24.399Z,82.01
2016-10-05T01:57:06.951Z,82.01
2016-10-05T01:57:49.510Z,82.2
2016-10-05T01:58:32.104Z,81.43
2016-10-05T01:59:14.678Z,81.43
2016-10-05T01:59:57.196Z,81.43
2016-10-05T02:00:39.737Z,81.34
2016-10-05T02:01:22.278Z,81.34
2016-10-05T02:02:04.788Z,81.82
2016-10-05T02:02:47.458Z,81.24
2016-10-05T02:03:30.017Z,81.05
2016-10-05T02:04:12.641Z,81.15
2016-10-05T02:04:55.190Z,81.82
2016-10-05T02:05:37.693Z,81.72
2016-10-05T02:06:20.273Z,81.72
2016-10-05T02:07:02.896Z,82.1
2016-10-05T02:07:45.474Z,82.4
2016-10-05T02:08:28.019Z,82.97
2016-10-05T02:09:10.499Z,82.59
2016-10-05T02:09:53.080Z,82.2
2016-10-05T02:10:35.660Z,82.68
2016-10-05T02:11:18.192Z,82.97
2016-10-05T02:12:00.821Z,83.07
2016-10-05T02:12:43.252Z,82.59
2016-10-05T02:13:25.847Z,82.54
2016-10-05T02:14:08.405Z,82.64
2016-10-05T02:14:50.948Z,82.68
2016-10-05T02:15:33.336Z,82.97
2016-10-05T02:16:16.032Z,83.07
2016-10-05T02:16:58.586Z,83.07
2016-10-05T02:17:41.145Z,83.03
2016-10-05T02:18:23.704Z,82.78
2016-10-05T02:19:06.230Z,83.12
2016-10-05T02:19:48.733Z,83.22
2016-10-05T02:20:31.452Z,83.7
2016-10-05T02:21:14.018Z,83.22
2016-10-05T02:21:56.601Z,83.41
2016-10-05T02:22:39.176Z,83.6
2016-10-05T02:23:21.753Z,83.41
2016-10-05T02:24:04.332Z,83.98
2016-10-05T02:24:46.913Z,83.51
2016-10-05T02:25:29.487Z,83.89
2016-10-05T02:26:12.013Z,83.89
2016-10-05T02:26:54.609Z,83.6
2016-10-05T02:27:37.249Z,84.27
2016-10-05T02:28:19.833Z,84.47
2016-10-05T02:29:02.320Z,84.56
2016-10-05T02:29:44.908Z,84.18
2016-10-05T02:30:30.368Z,83.7
2016-10-05T02:31:19.745Z,83.41
2016-10-05T02:32:02.131Z,83.22
2016-10-05T02:32:44.835Z,83.6
2016-10-05T02:33:27.370Z,83.31
2016-10-05T02:34:09.814Z,84.08
2016-10-05T02:34:52.572Z,83.8
2016-10-05T02:35:35.171Z,83.22
2016-10-05T02:36:17.668Z,83.6
2016-10-05T02:37:00.208Z,83.31
2016-10-05T02:37:42.782Z,83.31
2016-10-05T02:38:25.316Z,83.51
2016-10-05T02:39:07.903Z,83.6
2016-10-05T02:39:50.449Z,83.6
2016-10-05T02:40:33.045Z,84.18
2016-10-05T02:41:15.590Z,83.98
2016-10-05T02:41:58.165Z,84.08
2016-10-05T02:42:40.739Z,83.51
2016-10-05T02:43:23.084Z,83.89
2016-10-05T02:44:05.816Z,83.7
2016-10-05T02:44:48.354Z,84.47
2016-10-05T02:45:30.887Z,84.08
2016-10-05T02:46:13.423Z,83.98
2016-10-05T02:46:55.920Z,83.41
2016-10-05T02:47:38.596Z,83.41
2016-10-05T02:48:21.186Z,83.8
2016-10-05T02:49:03.759Z,83.6
2016-10-05T02:49:49.017Z,83.51
2016-10-05T02:50:31.685Z,83.22
2016-10-05T02:51:14.327Z,83.7
2016-10-05T02:51:59.136Z,82.93
2016-10-05T02:52:45.978Z,83.31
2016-10-05T02:53:30.758Z,82.26
2016-10-05T02:54:13.417Z,83.03
2016-10-05T02:54:56.047Z,83.31
2016-10-05T02:55:38.697Z,83.22
2016-10-05T02:56:21.409Z,83.03
2016-10-05T02:57:03.971Z,83.22
2016-10-05T02:57:46.620Z,83.22
2016-10-05T02:58:29.223Z,83.12
2016-10-05T02:59:11.820Z,83.12
2016-10-05T03:00:01.706Z,83.03
2016-10-05T03:00:44.372Z,82.84
2016-10-05T03:01:26.786Z,83.51
2016-10-05T03:02:52.047Z,82.45
2016-10-05T03:03:34.577Z,82.26
2016-10-05T03:04:17.146Z,83.03
2016-10-05T03:04:59.719Z,82.45
2016-10-05T03:05:42.298Z,82.93
2016-10-05T03:06:24.867Z,82.35
2016-10-05T03:07:07.440Z,82.84
2016-10-05T03:07:50.096Z,82.64
2016-10-05T03:08:32.612Z,82.93
2016-10-05T03:09:15.263Z,82.07
2016-10-05T03:09:57.797Z,83.7
2016-10-05T03:10:40.377Z,82.64
2016-10-05T03:11:23.053Z,81.97
2016-10-05T03:12:05.584Z,82.74
2016-10-05T03:12:48.158Z,83.31
2016-10-05T03:13:30.744Z,83.22
2016-10-05T03:14:13.332Z,83.89
2016-10-05T03:14:55.901Z,83.7
2016-10-05T03:15:38.431Z,83.51
2016-10-05T03:16:21.010Z,83.22
2016-10-05T03:17:03.609Z,83.51
2016-10-05T03:17:46.164Z,82.93
2016-10-05T03:18:28.791Z,83.51
2016-10-05T03:19:11.364Z,83.6
2016-10-05T03:19:53.890Z,83.98
2016-10-05T03:20:36.435Z,84.14
2016-10-05T03:21:19.001Z,84.71
2016-10-05T03:22:01.619Z,84.23
2016-10-05T03:22:44.195Z,84.81
2016-10-05T03:23:26.776Z,85
2016-10-05T03:24:09.338Z,85.28
2016-10-05T03:24:51.892Z,85.19
2016-10-05T03:25:34.415Z,85.19
2016-10-05T03:26:16.995Z,85.48
2016-10-05T03:26:59.346Z,85.67
2016-10-05T03:27:42.063Z,85.48
2016-10-05T03:28:24.664Z,86.34
2016-10-05T03:29:07.043Z,85.77
2016-10-05T03:29:49.817Z,85.77
2016-10-05T03:30:32.338Z,85.28
2016-10-05T03:31:14.887Z,85.38
2016-10-05T03:31:57.440Z,84.61
2016-10-05T03:32:40.085Z,85.38
2016-10-05T03:33:22.616Z,84.61
2016-10-05T03:34:05.127Z,84.23
2016-10-05T03:34:47.797Z,84.81
2016-10-05T03:35:30.342Z,84.42
2016-10-05T03:36:12.948Z,83.8
2016-10-05T03:36:55.528Z,84.04
2016-10-05T03:37:38.074Z,83.18
2016-10-05T03:38:20.528Z,83.37
2016-10-05T03:39:03.275Z,83.18
2016-10-05T03:39:45.828Z,83.65
2016-10-05T03:40:28.438Z,83.51
2016-10-05T03:41:11.009Z,82.93
2016-10-05T03:41:53.592Z,83.31
2016-10-05T03:42:36.117Z,83.31
2016-10-05T03:43:18.677Z,83.7
2016-10-05T03:44:01.220Z,82.64
2016-10-05T03:44:43.740Z,82.84
2016-10-05T03:45:26.285Z,82.64
2016-10-05T03:46:08.841Z,83.03
2016-10-05T03:46:51.450Z,83.31
2016-10-05T03:47:33.997Z,83.31
2016-10-05T03:48:16.514Z,82.93
2016-10-05T03:48:59.084Z,82.84
2016-10-05T03:49:41.662Z,82.45
2016-10-05T03:50:24.223Z,82.35
2016-10-05T03:51:06.806Z,82.84
2016-10-05T03:51:49.359Z,82.74
2016-10-05T03:52:31.968Z,82.54
2016-10-05T03:53:14.491Z,82.45
2016-10-05T03:53:57.035Z,82.35
2016-10-05T03:54:39.629Z,82.35
2016-10-05T03:55:22.200Z,82.16
2016-10-05T03:56:04.782Z,82.35
2016-10-05T03:56:47.292Z,82.54
2016-10-05T03:57:29.758Z,82.35
2016-10-05T03:58:12.504Z,81.59
2016-10-05T03:58:55.069Z,81.54
2016-10-05T03:59:37.655Z,81.84
2016-10-05T04:00:20.237Z,82.07
2016-10-05T04:01:02.795Z,82.03
2016-10-05T04:01:45.471Z,81.87
2016-10-05T04:02:28.080Z,81.97
2016-10-05T04:03:10.661Z,81.3
2016-10-05T04:03:53.195Z,81.2
2016-10-05T04:04:35.755Z,81.2
2016-10-05T04:05:18.388Z,81.1
2016-10-05T04:06:00.932Z,81.1
2016-10-05T04:06:43.480Z,80.73
2016-10-05T04:07:26.004Z,80.91
2016-10-05T04:08:08.586Z,80.82
2016-10-05T04:08:51.152Z,81.3
2016-10-05T04:09:33.698Z,81.68
2016-10-05T04:10:17.243Z,81.78
2016-10-05T04:10:59.854Z,81.49
2016-10-05T04:11:42.436Z,80.82
2016-10-05T04:12:24.941Z,81.01
2016-10-05T04:13:07.437Z,81.54
2016-10-05T04:13:50.026Z,82.03
2016-10-05T04:14:32.560Z,82.03
2016-10-05T04:15:14.927Z,81.93
2016-10-05T04:15:57.732Z,81.84
2016-10-05T04:16:40.255Z,82.03
2016-10-05T04:17:22.864Z,81.54
2016-10-05T04:18:05.399Z,81.59
2016-10-05T04:18:47.937Z,82.07
2016-10-05T04:19:30.323Z,82.21
2016-10-05T04:20:13.017Z,81.35
2016-10-05T04:20:55.592Z,81.54
2016-10-05T04:21:38.131Z,81.4
2016-10-05T04:22:20.605Z,81.45
2016-10-05T04:23:03.215Z,81.4
2016-10-05T04:23:45.763Z,81.4
2016-10-05T04:24:28.329Z,81.01
2016-10-05T04:25:10.892Z,81.4
2016-10-05T04:25:53.291Z,81.1
2016-10-05T04:26:36.032Z,81.01
2016-10-05T04:27:18.610Z,81.2
2016-10-05T04:28:01.210Z,81.2
2016-10-05T04:28:43.792Z,81.59
2016-10-05T04:29:26.348Z,81.4
2016-10-05T04:30:08.863Z,81.78
2016-10-05T04:30:51.450Z,81.59
2016-10-05T04:31:34.038Z,81.59
2016-10-05T04:32:16.574Z,81.4
2016-10-05T04:32:59.145Z,81.74
2016-10-05T04:33:41.714Z,81.49
2016-10-05T04:34:24.357Z,81.87
2016-10-05T04:35:06.879Z,82.03
2016-10-05T04:35:49.419Z,81.93
2016-10-05T04:36:31.973Z,82.03
2016-10-05T04:37:14.509Z,82.31
2016-10-05T04:37:57.070Z,82.03
2016-10-05T04:38:39.668Z,82.03
2016-10-05T04:39:22.194Z,81.93
2016-10-05T04:40:04.871Z,82.03
2016-10-05T04:40:47.409Z,81.93
2016-10-05T04:41:29.973Z,81.84
2016-10-05T04:42:12.502Z,82.12
2016-10-05T04:42:54.950Z,82.21
2016-10-05T04:43:37.621Z,81.84
2016-10-05T04:44:20.192Z,82.12
2016-10-05T04:45:02.756Z,82.31
2016-10-05T04:45:45.340Z,81.54
2016-10-05T04:46:27.844Z,82.03
2016-10-05T04:47:10.383Z,81.74
2016-10-05T04:47:52.957Z,81.93
2016-10-05T04:48:35.474Z,82.21
2016-10-05T04:49:18.024Z,81.93
2016-10-05T04:50:00.595Z,82.12
2016-10-05T04:50:43.026Z,81.35
2016-10-05T04:51:25.706Z,81.35
2016-10-05T04:52:08.350Z,81.93
2016-10-05T04:52:50.914Z,81.64
2016-10-05T04:53:33.471Z,81.93
2016-10-05T04:54:16.037Z,81.64
2016-10-05T04:54:58.559Z,81.93
2016-10-05T04:55:41.007Z,82.03
2016-10-05T04:56:23.701Z,81.93
2016-10-05T04:57:06.246Z,81.45
2016-10-05T04:57:48.790Z,81.93
2016-10-05T04:58:31.342Z,81.74
2016-10-05T04:59:13.890Z,82.03
2016-10-05T04:59:56.492Z,81.93
2016-10-05T05:00:39.045Z,81.35
2016-10-05T05:01:21.620Z,81.26
2016-10-05T05:02:04.233Z,81.26
2016-10-05T05:02:46.833Z,82.12
2016-10-05T05:03:29.280Z,81.45
2016-10-05T05:04:11.962Z,81.35
2016-10-05T05:04:54.374Z,81.93
2016-10-05T05:05:37.104Z,81.64
2016-10-05T05:06:19.712Z,81.93
2016-10-05T05:07:02.243Z,81.45
2016-10-05T05:07:44.779Z,82.21
2016-10-05T05:08:27.347Z,82.03
2016-10-05T05:09:09.863Z,82.12
2016-10-05T05:09:52.506Z,82.03
2016-10-05T05:10:35.049Z,81.64
2016-10-05T05:11:17.595Z,81.74
2016-10-05T05:12:00.179Z,81.84
2016-10-05T05:12:42.752Z,81.74
2016-10-05T05:13:25.264Z,81.64
2016-10-05T05:14:07.871Z,81.93
2016-10-05T05:14:50.252Z,82.12
2016-10-05T05:15:33.034Z,81.45
2016-10-05T05:16:15.637Z,81.54
2016-10-05T05:16:58.242Z,81.93
2016-10-05T05:17:40.785Z,81.93
2016-10-05T05:18:23.313Z,82.03
2016-10-05T05:19:05.879Z,81.54
2016-10-05T05:19:48.453Z,81.45
2016-10-05T05:20:30.994Z,81.64
2016-10-05T05:21:13.508Z,81.54
2016-10-05T05:21:56.033Z,81.74
2016-10-05T05:22:38.639Z,82.21
2016-10-05T05:23:21.195Z,81.93
2016-10-05T05:24:03.725Z,82.03
2016-10-05T05:24:46.245Z,81.74
2016-10-05T05:25:28.710Z,81.84
2016-10-05T05:26:11.351Z,81.64
2016-10-05T05:26:53.948Z,81.64
2016-10-05T05:27:36.403Z,81.64
2016-10-05T05:28:19.031Z,81.84
2016-10-05T05:29:01.571Z,81.64
2016-10-05T05:29:44.113Z,81.64
2016-10-05T05:30:26.715Z,82.03
2016-10-05T05:31:09.213Z,81.64
2016-10-05T05:31:52.478Z,81.84
2016-10-05T05:32:35.038Z,82.03
2016-10-05T05:33:17.610Z,81.35
2016-10-05T05:34:00.136Z,81.64
2016-10-05T05:34:42.701Z,81.16
2016-10-05T05:35:25.267Z,81.45
2016-10-05T05:36:07.800Z,81.45
2016-10-05T05:36:50.302Z,81.26
2016-10-05T05:37:32.876Z,81.35
2016-10-05T05:38:15.495Z,81.16
2016-10-05T05:38:58.044Z,81.2
2016-10-05T05:39:40.631Z,81.54
2016-10-05T05:40:23.199Z,81.35
2016-10-05T05:41:05.753Z,81.07
2016-10-05T05:41:48.299Z,81.16
2016-10-05T05:42:30.829Z,81.01
2016-10-05T05:43:13.381Z,80.82
2016-10-05T05:43:55.922Z,80.63
2016-10-05T05:44:38.485Z,80.82
2016-10-05T05:45:21.019Z,81.1
2016-10-05T05:46:03.608Z,80.53
2016-10-05T05:46:46.243Z,80.91
2016-10-05T05:47:28.844Z,81.01
2016-10-05T05:48:11.397Z,81.3
2016-10-05T05:48:53.964Z,81.4
2016-10-05T05:49:36.580Z,81.1
2016-10-05T05:50:18.956Z,81.1
2016-10-05T05:51:01.720Z,81.1
2016-10-05T05:51:44.276Z,81.3
2016-10-05T05:52:26.843Z,81.78
2016-10-05T05:53:09.376Z,82.07
2016-10-05T05:53:51.938Z,82.26
2016-10-05T05:54:34.468Z,82.07
2016-10-05T05:55:17.061Z,81.59
2016-10-05T05:55:59.603Z,81.3
2016-10-05T05:56:42.152Z,81.49
2016-10-05T05:57:24.687Z,81.4
2016-10-05T05:58:07.325Z,81.3
2016-10-05T05:58:49.912Z,81.4
2016-10-05T05:59:32.456Z,81.3
2016-10-05T06:00:15.041Z,81.1
2016-10-05T06:00:57.594Z,81.2
2016-10-05T06:01:40.155Z,81.01
2016-10-05T06:02:22.703Z,81.3
2016-10-05T06:03:05.210Z,81.2
2016-10-05T06:03:47.845Z,81.78
2016-10-05T06:04:30.385Z,81.49
2016-10-05T06:05:12.927Z,81.2
2016-10-05T06:05:55.452Z,81.68
2016-10-05T06:06:38.052Z,81.3
2016-10-05T06:07:20.652Z,81.4
2016-10-05T06:08:03.230Z,81.59
2016-10-05T06:08:45.812Z,81.49
2016-10-05T06:09:28.402Z,81.1
2016-10-05T06:10:10.996Z,81.2
2016-10-05T06:10:53.588Z,81.2
2016-10-05T06:11:36.116Z,81.49
2016-10-05T06:12:18.596Z,81.35
2016-10-05T06:13:01.133Z,81.78
2016-10-05T06:13:43.774Z,81.16
2016-10-05T06:14:26.278Z,81.26
2016-10-05T06:15:08.841Z,81.54
2016-10-05T06:15:51.374Z,81.45
2016-10-05T06:16:33.768Z,81.84
2016-10-05T06:17:16.446Z,81.93
2016-10-05T06:17:59.054Z,81.64
2016-10-05T06:18:41.356Z,81.93
2016-10-05T06:19:24.103Z,82.31
2016-10-05T06:20:06.644Z,82.03
2016-10-05T06:20:49.145Z,82.03
2016-10-05T06:21:31.692Z,82.16
2016-10-05T06:22:14.323Z,81.74
2016-10-05T06:22:56.953Z,81.64
2016-10-05T06:23:39.534Z,81.45
2016-10-05T06:24:22.054Z,81.78
2016-10-05T06:25:04.626Z,81.84
2016-10-05T06:25:47.144Z,81.84
2016-10-05T06:26:29.668Z,81.84
2016-10-05T06:27:12.217Z,82.03
2016-10-05T06:27:54.760Z,82.31
2016-10-05T06:28:37.334Z,82.6
2016-10-05T06:29:19.850Z,82.21
2016-10-05T06:30:02.403Z,82.51
2016-10-05T06:30:44.996Z,82.7
2016-10-05T06:31:27.560Z,82.79
2016-10-05T06:32:10.106Z,82.79
2016-10-05T06:32:52.638Z,83.18
2016-10-05T06:33:35.177Z,83.18
2016-10-05T06:34:17.781Z,82.89
2016-10-05T06:35:00.317Z,82.6
2016-10-05T06:35:42.943Z,82.41
2016-10-05T06:36:25.477Z,82.7
2016-10-05T06:37:07.897Z,83.08
2016-10-05T06:37:50.544Z,83.42
2016-10-05T06:38:33.474Z,83.52
2016-10-05T06:39:15.573Z,83.04
2016-10-05T06:39:58.125Z,83.33
2016-10-05T06:40:40.663Z,83.71
2016-10-05T06:41:23.206Z,83.91
2016-10-05T06:42:05.714Z,83.91
2016-10-05T06:42:48.311Z,83.91
2016-10-05T06:43:30.785Z,83.61
2016-10-05T06:44:13.509Z,83.81
2016-10-05T06:44:56.040Z,83.14
2016-10-05T06:45:38.623Z,83.52
2016-10-05T06:46:21.180Z,83.61
2016-10-05T06:47:03.715Z,83.58
2016-10-05T06:47:46.274Z,83.61
2016-10-05T06:48:28.859Z,83.38
2016-10-05T06:49:11.402Z,83.29
2016-10-05T06:49:53.938Z,83.38
2016-10-05T06:50:36.506Z,83.58
2016-10-05T06:51:19.052Z,83.09
2016-10-05T06:52:01.648Z,83.58
2016-10-05T06:52:44.196Z,83.09
2016-10-05T06:53:26.768Z,83.67
2016-10-05T06:54:09.324Z,83.19
2016-10-05T06:54:51.889Z,83.14
2016-10-05T06:55:34.433Z,83.38
2016-10-05T06:56:16.971Z,83.76
2016-10-05T06:56:59.534Z,83.38
2016-10-05T06:57:42.137Z,83.14
2016-10-05T06:58:24.722Z,83.14
2016-10-05T06:59:07.318Z,83.38
2016-10-05T06:59:49.848Z,83.14
2016-10-05T07:00:32.391Z,83.81
2016-10-05T07:01:14.914Z,83.19
2016-10-05T07:01:57.504Z,82.94
2016-10-05T07:02:40.066Z,83.14
2016-10-05T07:03:22.661Z,83.19
2016-10-05T07:04:05.209Z,83.19
2016-10-05T07:04:47.768Z,83.67
2016-10-05T07:05:30.340Z,83.29
2016-10-05T07:06:12.929Z,83.09
2016-10-05T07:06:55.544Z,83
2016-10-05T07:07:38.064Z,82.9
2016-10-05T07:08:20.610Z,83.23
2016-10-05T07:09:03.218Z,82.37
2016-10-05T07:09:45.788Z,82.94
2016-10-05T07:10:28.319Z,82.75
2016-10-05T07:11:10.891Z,82.85
2016-10-05T07:11:53.428Z,82.94
2016-10-05T07:12:35.980Z,82.65
2016-10-05T07:13:18.528Z,82.85
2016-10-05T07:14:01.072Z,82.85
2016-10-05T07:14:43.619Z,82.56
2016-10-05T07:15:26.085Z,82.75
2016-10-05T07:16:09.040Z,82.37
2016-10-05T07:16:51.628Z,82.27
2016-10-05T07:17:34.165Z,82.46
2016-10-05T07:18:16.792Z,82.65
2016-10-05T07:18:59.330Z,82.08
2016-10-05T07:19:41.924Z,82.37
2016-10-05T07:20:24.454Z,82.37
2016-10-05T07:21:06.997Z,81.98
2016-10-05T07:21:49.564Z,82.08
2016-10-05T07:22:32.105Z,81.89
2016-10-05T07:23:14.613Z,81.79
2016-10-05T07:23:57.180Z,81.89
2016-10-05T07:24:39.715Z,81.7
2016-10-05T07:25:22.310Z,81.41
2016-10-05T07:26:04.827Z,81.89
2016-10-05T07:26:47.369Z,81.98
2016-10-05T07:27:29.963Z,81.79
2016-10-05T07:28:12.549Z,81.64
2016-10-05T07:28:55.051Z,81.45
2016-10-05T07:29:37.545Z,81.93
2016-10-05T07:30:20.043Z,82.03
2016-10-05T07:31:02.738Z,81.51
2016-10-05T07:31:45.355Z,81.31
2016-10-05T07:32:27.909Z,81.31
2016-10-05T07:33:10.400Z,81.35
2016-10-05T07:33:52.981Z,81.45
2016-10-05T07:34:35.560Z,81.26
2016-10-05T07:35:18.139Z,81.22
2016-10-05T07:36:00.690Z,81.26
2016-10-05T07:36:43.260Z,81.45
2016-10-05T07:37:25.824Z,81.64
2016-10-05T07:38:08.397Z,81.26
2016-10-05T07:38:50.914Z,80.97
2016-10-05T07:39:33.420Z,81.16
2016-10-05T07:40:15.955Z,81.16
2016-10-05T07:40:58.533Z,81.16
2016-10-05T07:41:41.109Z,80.97
2016-10-05T07:42:23.703Z,80.97
2016-10-05T07:43:06.249Z,81.41
2016-10-05T07:43:48.804Z,81.54
2016-10-05T07:44:31.397Z,81.64
2016-10-05T07:45:13.933Z,81.07
2016-10-05T07:45:56.447Z,81.02
2016-10-05T07:46:39.028Z,81.12
2016-10-05T07:47:21.555Z,81.64
2016-10-05T07:48:04.154Z,81.45
2016-10-05T07:48:46.736Z,81.16
2016-10-05T07:49:29.271Z,81.45
2016-10-05T07:50:11.828Z,81.45
2016-10-05T07:50:54.432Z,81.16
2016-10-05T07:51:36.989Z,81.64
2016-10-05T07:52:19.556Z,81.35
2016-10-05T07:53:02.085Z,81.45
2016-10-05T07:53:44.646Z,81.16
2016-10-05T07:54:26.972Z,81.16
2016-10-05T07:55:09.746Z,81.16
2016-10-05T07:55:52.280Z,81.22
2016-10-05T07:56:34.784Z,81.31
2016-10-05T07:57:17.373Z,82.18
2016-10-05T07:57:59.926Z,81.31
2016-10-05T07:58:42.490Z,81.98
2016-10-05T07:59:25.014Z,81.79
2016-10-05T08:00:07.548Z,81.98
2016-10-05T08:00:50.211Z,81.6
2016-10-05T08:01:32.749Z,81.7
2016-10-05T08:02:15.325Z,81.7
2016-10-05T08:02:57.895Z,82.56
2016-10-05T08:03:40.508Z,82.37
2016-10-05T08:04:23.067Z,82.37
2016-10-05T08:05:05.609Z,82.27
2016-10-05T08:05:48.179Z,82.75
2016-10-05T08:06:30.730Z,82.27
2016-10-05T08:07:13.293Z,82.46
2016-10-05T08:07:55.840Z,82.27
2016-10-05T08:08:38.455Z,82.46
2016-10-05T08:09:20.997Z,82.65
2016-10-05T08:10:03.518Z,82.37
2016-10-05T08:10:46.101Z,82.18
2016-10-05T08:11:28.654Z,82.18
2016-10-05T08:12:11.219Z,82.08
2016-10-05T08:12:53.735Z,82.08
2016-10-05T08:13:36.295Z,81.7
2016-10-05T08:14:18.820Z,81.89
2016-10-05T08:15:01.356Z,81.74
2016-10-05T08:15:43.840Z,81.98
2016-10-05T08:16:26.386Z,81.41
2016-10-05T08:17:08.973Z,81.54
2016-10-05T08:17:51.504Z,81.74
2016-10-05T08:18:34.035Z,81.45
2016-10-05T08:19:16.605Z,81.16
2016-10-05T08:19:58.979Z,81.07
2016-10-05T08:20:41.574Z,81.07
2016-10-05T08:21:24.197Z,81.31
2016-10-05T08:22:06.735Z,81.7
2016-10-05T08:22:49.223Z,81.45
2016-10-05T08:23:31.808Z,81.74
2016-10-05T08:24:14.362Z,80.97
2016-10-05T08:24:56.941Z,80.97
2016-10-05T08:25:39.512Z,81.07
2016-10-05T08:26:22.093Z,81.07
2016-10-05T08:27:04.632Z,81.07
2016-10-05T08:27:47.051Z,81.07
2016-10-05T08:28:29.810Z,80.97
2016-10-05T08:29:12.256Z,81.16
2016-10-05T08:29:54.971Z,81.07
2016-10-05T08:30:37.469Z,81.12
2016-10-05T08:31:20.042Z,81.54
2016-10-05T08:32:02.594Z,81.45
2016-10-05T08:32:45.091Z,81.35
2016-10-05T08:33:27.660Z,81.35
2016-10-05T08:34:10.192Z,81.07
2016-10-05T08:34:52.776Z,81.16
2016-10-05T08:35:35.320Z,80.97
2016-10-05T08:36:17.739Z,81.35
2016-10-05T08:37:00.423Z,81.26
2016-10-05T08:37:43.007Z,81.54
2016-10-05T08:38:25.608Z,81.74
2016-10-05T08:39:08.129Z,81.64
2016-10-05T08:39:50.734Z,81.16
2016-10-05T08:40:33.212Z,81.64
2016-10-05T08:41:15.823Z,81.26
2016-10-05T08:41:58.355Z,81.54
2016-10-05T08:42:40.908Z,81.35
2016-10-05T08:43:23.434Z,81.74
2016-10-05T08:44:05.799Z,81.54
2016-10-05T08:44:48.545Z,81.54
2016-10-05T08:45:31.128Z,81.45
2016-10-05T08:46:13.694Z,81.35
2016-10-05T08:46:56.284Z,81.35
2016-10-05T08:47:38.842Z,81.26
2016-10-05T08:48:21.437Z,81.54
2016-10-05T08:49:03.995Z,81.45
2016-10-05T08:49:46.645Z,81.26
2016-10-05T08:50:29.209Z,81.54
2016-10-05T08:51:11.712Z,81.35
2016-10-05T08:51:54.293Z,81.54
2016-10-05T08:52:36.825Z,81.35
2016-10-05T08:53:19.366Z,81.16
2016-10-05T08:54:01.866Z,81.35
2016-10-05T08:54:44.385Z,82.12
2016-10-05T08:55:26.944Z,81.93
2016-10-05T08:56:09.513Z,82.12
2016-10-05T08:56:52.065Z,81.74
2016-10-05T08:57:34.646Z,82.12
2016-10-05T08:58:17.174Z,82.08
2016-10-05T08:58:59.751Z,81.98
2016-10-05T08:59:42.275Z,82.27
2016-10-05T09:00:24.842Z,82.27
2016-10-05T09:01:07.381Z,82.46
2016-10-05T09:01:49.746Z,82.6
2016-10-05T09:02:32.491Z,82.65
2016-10-05T09:03:15.121Z,82.51
2016-10-05T09:03:57.621Z,82.31
2016-10-05T09:04:40.172Z,82.21
2016-10-05T09:05:22.744Z,81.64
2016-10-05T09:06:05.277Z,81.93
2016-10-05T09:06:47.733Z,81.93
2016-10-05T09:07:30.664Z,81.93
2016-10-05T09:08:13.401Z,81.84
2016-10-05T09:08:55.980Z,82.6
2016-10-05T09:09:38.543Z,82.21
2016-10-05T09:10:21.429Z,82.7
2016-10-05T09:11:03.938Z,82.46
2016-10-05T09:11:46.467Z,82.31